createdAt,value
2018-07-15T00:00:37.221Z,6.77
2018-07-15T00:03:05.500Z,7.37
2018-07-15T00:05:33.675Z,7.03
2018-07-15T00:08:01.868Z,6.93
2018-07-15T00:10:30.528Z,6.90
2018-07-15T00:12:58.692Z,7.87
2018-07-15T00:15:26.859Z,7.90
2018-07-15T00:17:55.018Z,7.00
2018-07-15T00:20:23.182Z,7.50
2018-07-15T00:22:51.331Z,7.20
2018-07-15T00:25:19.513Z,7.20
2018-07-15T00:27:47.687Z,8.10
2018-07-15T00:30:15.855Z,7.80
2018-07-15T00:32:44.013Z,7.80
2018-07-15T00:35:12.188Z,6.50
2018-07-15T00:37:40.340Z,6.90
2018-07-15T00:40:08.719Z,6.73
2018-07-15T00:42:36.930Z,7.00
2018-07-15T00:45:05.100Z,7.87
2018-07-15T00:47:33.278Z,7.37
2018-07-15T00:50:01.446Z,7.73
2018-07-15T00:52:29.609Z,7.67
2018-07-15T00:54:57.781Z,7.17
2018-07-15T00:57:25.943Z,6.97
2018-07-15T00:59:54.114Z,7.80
2018-07-15T01:02:22.346Z,7.70
2018-07-15T01:04:50.523Z,7.63
2018-07-15T01:07:18.723Z,7.43
2018-07-15T01:09:46.919Z,7.70
2018-07-15T01:12:15.074Z,7.87
2018-07-15T01:14:43.242Z,7.60
2018-07-15T01:17:11.431Z,7.80
2018-07-15T01:19:40.221Z,7.80
2018-07-15T01:22:08.385Z,6.70
2018-07-15T01:24:36.533Z,7.30
2018-07-15T01:27:04.751Z,7.80
2018-07-15T01:29:32.900Z,7.30
2018-07-15T01:32:01.092Z,7.00
2018-07-15T01:34:29.375Z,7.03
2018-07-15T01:36:57.551Z,7.60
2018-07-15T01:39:25.700Z,7.60
2018-07-15T01:41:53.877Z,7.87
2018-07-15T01:44:22.027Z,7.27
2018-07-15T01:46:50.199Z,6.80
2018-07-15T01:49:18.367Z,7.03
2018-07-15T01:51:46.528Z,7.20
2018-07-15T01:54:14.680Z,8.20
2018-07-15T01:56:42.903Z,7.90
2018-07-15T01:59:11.054Z,7.30
2018-07-15T02:01:39.235Z,8.50
2018-07-15T02:04:13.952Z,8.03
2018-07-15T02:06:42.120Z,7.77
2018-07-15T02:09:10.284Z,7.87
2018-07-15T02:11:38.460Z,7.80
2018-07-15T02:14:06.781Z,7.60
2018-07-15T02:16:34.996Z,7.33
2018-07-15T02:19:03.205Z,7.50
2018-07-15T02:21:31.380Z,7.60
2018-07-15T02:23:59.531Z,6.93
2018-07-15T02:26:27.695Z,7.60
2018-07-15T02:28:55.856Z,7.83
2018-07-15T02:31:24.041Z,7.93
2018-07-15T02:33:52.191Z,7.80
2018-07-15T02:36:20.370Z,7.60
2018-07-15T02:38:48.544Z,6.93
2018-07-15T02:41:16.717Z,7.80
2018-07-15T02:43:44.880Z,7.90
2018-07-15T02:46:13.061Z,7.40
2018-07-15T02:48:41.217Z,8.20
2018-07-15T02:51:09.356Z,7.17
2018-07-15T02:53:37.612Z,7.87
2018-07-15T02:56:06.043Z,7.90
2018-07-15T02:58:34.261Z,8.13
2018-07-15T03:01:02.442Z,7.77
2018-07-15T03:03:30.627Z,8.13
2018-07-15T03:05:58.808Z,8.60
2018-07-15T03:08:26.997Z,7.40
2018-07-15T03:10:55.163Z,7.77
2018-07-15T03:13:23.357Z,8.70
2018-07-15T03:15:51.517Z,8.00
2018-07-15T03:18:19.712Z,8.87
2018-07-15T03:20:47.904Z,8.53
2018-07-15T03:23:16.083Z,8.70
2018-07-15T03:25:44.272Z,10.13
2018-07-15T03:28:12.460Z,8.27
2018-07-15T03:30:40.635Z,8.77
2018-07-15T03:33:08.822Z,8.47
2018-07-15T03:35:37.008Z,8.53
2018-07-15T03:38:05.204Z,9.10
2018-07-15T03:43:07.878Z,8.83
2018-07-15T03:45:36.070Z,9.33
2018-07-15T03:48:04.421Z,8.40
2018-07-15T03:50:32.645Z,9.53
2018-07-15T03:53:00.841Z,9.80
2018-07-15T03:55:29.026Z,8.63
2018-07-15T03:57:57.271Z,9.10
2018-07-15T04:00:25.454Z,9.13
2018-07-15T04:02:53.640Z,9.17
2018-07-15T04:05:21.827Z,9.47
2018-07-15T04:07:50.011Z,9.73
2018-07-15T04:10:18.242Z,8.73
2018-07-15T04:12:46.440Z,9.20
2018-07-15T04:15:14.667Z,9.53
2018-07-15T04:17:42.876Z,9.70
2018-07-15T04:20:11.092Z,10.00
2018-07-15T04:22:39.271Z,10.33
2018-07-15T04:25:07.503Z,9.80
2018-07-15T04:27:35.700Z,9.20
2018-07-15T04:30:03.895Z,8.80
2018-07-15T04:32:32.073Z,9.17
2018-07-15T04:35:00.255Z,8.60
2018-07-15T04:37:28.448Z,9.57
2018-07-15T04:39:56.633Z,8.57
2018-07-15T04:42:24.819Z,9.17
2018-07-15T04:44:53.005Z,9.80
2018-07-15T04:47:21.211Z,9.23
2018-07-15T04:49:49.432Z,9.40
2018-07-15T04:52:17.605Z,8.97
2018-07-15T04:54:45.801Z,9.17
2018-07-15T04:57:13.999Z,10.13
2018-07-15T04:59:42.208Z,8.70
2018-07-15T05:02:10.497Z,9.10
2018-07-15T05:04:38.629Z,10.13
2018-07-15T05:07:06.821Z,9.27
2018-07-15T05:09:35.001Z,9.60
2018-07-15T05:12:03.206Z,9.20
2018-07-15T05:14:31.404Z,8.77
2018-07-15T05:16:59.600Z,9.37
2018-07-15T05:19:30.773Z,9.77
2018-07-15T05:21:58.959Z,9.30
2018-07-15T05:24:27.148Z,11.20
2018-07-15T05:26:55.365Z,9.53
2018-07-15T05:29:23.566Z,9.00
2018-07-15T05:31:51.726Z,9.90
2018-07-15T05:34:19.924Z,9.73
2018-07-15T05:36:48.109Z,10.30
2018-07-15T05:39:16.304Z,10.17
2018-07-15T05:41:44.492Z,10.23
2018-07-15T05:44:12.896Z,10.00
2018-07-15T05:46:41.460Z,10.73
2018-07-15T05:49:09.713Z,10.33
2018-07-15T05:51:37.921Z,11.23
2018-07-15T05:54:06.111Z,9.80
2018-07-15T05:56:34.381Z,9.73
2018-07-15T05:59:02.576Z,9.77
2018-07-15T06:01:30.784Z,9.13
2018-07-15T06:03:58.983Z,11.37
2018-07-15T06:06:27.195Z,8.30
2018-07-15T06:08:55.371Z,8.90
2018-07-15T06:11:23.600Z,9.17
2018-07-15T06:13:51.806Z,7.80
2018-07-15T06:16:20.032Z,9.00
2018-07-15T06:18:48.231Z,7.53
2018-07-15T06:21:16.434Z,8.23
2018-07-15T06:23:44.642Z,8.10
2018-07-15T06:26:12.836Z,8.03
2018-07-15T06:28:41.019Z,7.97
2018-07-15T06:31:09.226Z,7.60
2018-07-15T06:33:37.416Z,8.60
2018-07-15T06:36:05.783Z,7.90
2018-07-15T06:38:33.967Z,7.50
2018-07-15T06:41:02.181Z,8.20
2018-07-15T06:43:30.380Z,7.50
2018-07-15T06:45:58.576Z,8.10
2018-07-15T06:48:26.768Z,7.80
2018-07-15T06:50:54.956Z,7.87
2018-07-15T06:53:23.178Z,7.00
2018-07-15T06:55:51.435Z,7.97
2018-07-15T06:58:19.542Z,7.00
2018-07-15T07:00:47.722Z,6.83
2018-07-15T07:03:15.879Z,7.33
2018-07-15T07:05:44.049Z,7.27
2018-07-15T07:08:12.221Z,7.37
2018-07-15T07:10:40.398Z,7.80
2018-07-15T07:13:08.756Z,7.60
2018-07-15T07:15:36.910Z,6.90
2018-07-15T07:18:05.066Z,8.00
2018-07-15T07:20:33.253Z,7.70
2018-07-15T07:23:01.425Z,7.83
2018-07-15T07:25:29.584Z,6.90
2018-07-15T07:27:57.772Z,7.47
2018-07-15T07:30:25.943Z,6.60
2018-07-15T07:32:54.115Z,7.87
2018-07-15T07:35:28.852Z,7.63
2018-07-15T07:37:56.896Z,7.20
2018-07-15T07:40:25.071Z,8.10
2018-07-15T07:42:53.286Z,7.37
2018-07-15T07:45:21.478Z,7.30
2018-07-15T07:47:49.664Z,7.87
2018-07-15T07:50:17.928Z,7.20
2018-07-15T07:52:49.170Z,7.17
2018-07-15T07:55:17.342Z,8.57
2018-07-15T07:57:45.541Z,6.97
2018-07-15T08:00:22.841Z,7.07
2018-07-15T08:02:51.045Z,7.83
2018-07-15T08:05:19.272Z,7.30
2018-07-15T08:07:47.481Z,7.30
2018-07-15T08:10:15.651Z,7.20
2018-07-15T08:12:43.843Z,7.90
2018-07-15T08:15:12.038Z,7.53
2018-07-15T08:17:40.215Z,7.27
2018-07-15T08:20:08.413Z,8.43
2018-07-15T08:22:36.642Z,7.97
2018-07-15T08:25:04.989Z,7.97
2018-07-15T08:27:33.719Z,8.00
2018-07-15T08:30:13.104Z,7.80
2018-07-15T08:32:41.364Z,7.60
2018-07-15T08:35:09.552Z,8.13
2018-07-15T08:37:37.798Z,8.53
2018-07-15T08:40:06.015Z,7.70
2018-07-15T08:42:34.244Z,7.67
2018-07-15T08:45:02.445Z,8.10
2018-07-15T08:47:30.643Z,8.33
2018-07-15T08:49:58.842Z,7.50
2018-07-15T08:52:27.096Z,7.53
2018-07-15T08:54:55.282Z,8.43
2018-07-15T08:57:23.448Z,7.23
2018-07-15T08:59:51.624Z,7.77
2018-07-15T09:02:19.780Z,7.90
2018-07-15T09:04:47.965Z,7.10
2018-07-15T09:07:16.136Z,8.30
2018-07-15T09:09:44.316Z,7.63
2018-07-15T09:12:12.524Z,7.73
2018-07-15T09:14:40.703Z,7.60
2018-07-15T09:17:08.860Z,7.40
2018-07-15T09:19:37.049Z,8.07
2018-07-15T09:22:05.388Z,7.67
2018-07-15T09:24:34.137Z,7.30
2018-07-15T09:27:02.541Z,8.00
2018-07-15T09:29:30.762Z,7.83
2018-07-15T09:31:59.395Z,8.60
2018-07-15T09:34:27.556Z,8.57
2018-07-15T09:36:55.967Z,7.43
2018-07-15T09:39:24.162Z,7.83
2018-07-15T09:41:52.308Z,8.27
2018-07-15T09:44:20.474Z,7.83
2018-07-15T09:46:48.784Z,8.13
2018-07-15T09:49:16.956Z,8.07
2018-07-15T09:51:45.113Z,7.63
2018-07-15T09:54:13.288Z,8.37
2018-07-15T09:56:41.832Z,8.60
2018-07-15T09:59:09.977Z,7.70
2018-07-15T10:01:38.271Z,8.10
2018-07-15T10:04:06.446Z,8.50
2018-07-15T10:06:34.614Z,8.60
2018-07-15T10:09:03.113Z,7.90
2018-07-15T10:11:31.291Z,8.10
2018-07-15T10:13:59.459Z,8.23
2018-07-15T10:16:28.587Z,8.27
2018-07-15T10:18:56.840Z,8.30
2018-07-15T10:21:24.910Z,8.80
2018-07-15T10:23:53.058Z,8.10
2018-07-15T10:26:21.307Z,8.77
2018-07-15T10:28:49.468Z,8.23
2018-07-15T10:31:17.647Z,8.70
2018-07-15T10:33:45.813Z,7.83
2018-07-15T10:36:13.989Z,7.67
2018-07-15T10:38:42.156Z,7.80
2018-07-15T10:41:10.331Z,8.20
2018-07-15T10:43:38.816Z,8.23
2018-07-15T10:46:07.009Z,8.70
2018-07-15T10:48:35.169Z,8.03
2018-07-15T10:51:03.354Z,8.40
2018-07-15T10:53:31.521Z,7.50
2018-07-15T10:55:59.704Z,8.10
2018-07-15T10:58:27.886Z,8.23
2018-07-15T11:00:56.138Z,8.33
2018-07-15T11:03:24.326Z,8.10
2018-07-15T11:05:52.511Z,8.50
2018-07-15T11:08:20.696Z,8.67
2018-07-15T11:10:49.053Z,8.30
2018-07-15T11:13:17.235Z,8.33
2018-07-15T11:15:45.419Z,8.40
2018-07-15T11:18:13.606Z,7.70
2018-07-15T11:20:41.843Z,7.90
2018-07-15T11:23:10.035Z,7.73
2018-07-15T11:25:38.218Z,9.10
2018-07-15T11:28:06.436Z,7.37
2018-07-15T11:30:34.809Z,8.40
2018-07-15T11:33:02.988Z,8.70
2018-07-15T11:35:31.220Z,8.70
2018-07-15T11:37:59.440Z,8.00
2018-07-15T11:40:27.633Z,8.03
2018-07-15T11:42:55.828Z,8.00
2018-07-15T11:45:24.025Z,7.73
2018-07-15T11:47:52.228Z,8.80
2018-07-15T11:50:20.423Z,9.00
2018-07-15T11:52:48.628Z,8.80
2018-07-15T11:55:16.830Z,8.40
2018-07-15T11:57:45.026Z,8.50
2018-07-15T12:00:13.209Z,8.10
2018-07-15T12:02:41.367Z,8.70
2018-07-15T12:05:09.582Z,8.20
2018-07-15T12:07:37.748Z,8.87
2018-07-15T12:10:06.297Z,9.23
2018-07-15T12:12:34.635Z,8.73
2018-07-15T12:15:02.783Z,8.13
2018-07-15T12:17:31.150Z,8.63
2018-07-15T12:19:59.326Z,7.40
2018-07-15T12:22:27.525Z,8.80
2018-07-15T12:24:55.681Z,9.07
2018-07-15T12:27:23.860Z,8.67
2018-07-15T12:29:52.023Z,8.33
2018-07-15T12:32:20.205Z,8.10
2018-07-15T12:34:48.395Z,7.97
2018-07-15T12:37:16.566Z,7.80
2018-07-15T12:39:44.747Z,7.83
2018-07-15T12:42:14.012Z,7.30
2018-07-15T12:44:42.168Z,8.17
2018-07-15T12:47:10.565Z,7.30
2018-07-15T12:49:38.753Z,8.10
2018-07-15T12:52:07.703Z,6.77
2018-07-15T12:54:35.948Z,7.13
2018-07-15T12:57:04.146Z,7.50
2018-07-15T12:59:32.346Z,7.63
2018-07-15T13:02:00.540Z,7.50
2018-07-15T13:04:28.799Z,7.17
2018-07-15T13:06:56.941Z,7.10
2018-07-15T13:09:25.224Z,7.73
2018-07-15T13:11:53.391Z,7.63
2018-07-15T13:14:21.591Z,7.93
2018-07-15T13:16:49.774Z,7.10
2018-07-15T13:19:17.986Z,7.23
2018-07-15T13:21:46.167Z,7.87
2018-07-15T13:24:14.363Z,7.47
2018-07-15T13:26:42.594Z,7.20
2018-07-15T13:29:10.814Z,7.17
2018-07-15T13:31:39.171Z,8.30
2018-07-15T13:34:07.397Z,6.93
2018-07-15T13:36:35.544Z,8.23
2018-07-15T13:39:04.660Z,7.13
2018-07-15T13:41:32.891Z,7.20
2018-07-15T13:44:01.017Z,6.53
2018-07-15T13:46:29.254Z,6.63
2018-07-15T13:48:57.441Z,6.80
2018-07-15T13:51:25.635Z,6.57
2018-07-15T13:53:53.868Z,6.77
2018-07-15T13:56:22.083Z,5.47
2018-07-15T13:58:50.350Z,5.07
2018-07-15T14:01:18.592Z,5.50
2018-07-15T14:03:46.808Z,5.73
2018-07-15T14:06:15.040Z,5.40
2018-07-15T14:08:43.220Z,4.80
2018-07-15T14:11:11.411Z,4.97
2018-07-15T14:13:39.609Z,4.87
2018-07-15T14:16:07.801Z,3.67
2018-07-15T14:18:35.986Z,4.20
2018-07-15T14:21:07.036Z,3.87
2018-07-15T14:23:36.083Z,3.93
2018-07-15T14:26:04.485Z,3.90
2018-07-15T14:28:33.324Z,3.70
2018-07-15T14:31:01.522Z,4.57
2018-07-15T14:33:29.716Z,4.17
2018-07-15T14:35:57.912Z,4.37
2018-07-15T14:38:26.087Z,4.23
2018-07-15T14:40:54.285Z,4.50
2018-07-15T14:43:22.472Z,4.20
2018-07-15T14:45:51.030Z,4.63
2018-07-15T14:48:19.228Z,4.53
2018-07-15T14:50:47.427Z,5.70
2018-07-15T14:53:15.622Z,5.80
2018-07-15T14:55:43.829Z,5.10
2018-07-15T14:58:12.116Z,5.40
2018-07-15T15:00:40.311Z,4.53
2018-07-15T15:03:08.492Z,5.07
2018-07-15T15:05:36.679Z,4.80
2018-07-15T15:08:04.950Z,4.90
2018-07-15T15:10:33.240Z,5.50
2018-07-15T15:13:01.912Z,4.90
2018-07-15T15:15:30.219Z,5.43
2018-07-15T15:18:01.396Z,5.47
2018-07-15T15:20:29.578Z,5.47
2018-07-15T15:22:57.880Z,4.90
2018-07-15T15:25:26.105Z,5.00
2018-07-15T15:27:54.378Z,4.50
2018-07-15T15:30:22.563Z,4.80
2018-07-15T15:32:51.008Z,4.93
2018-07-15T15:35:19.287Z,4.80
2018-07-15T15:37:47.726Z,4.70
2018-07-15T15:40:15.920Z,4.90
2018-07-15T15:42:44.131Z,4.50
2018-07-15T15:45:12.334Z,5.10
2018-07-15T15:47:41.291Z,5.00
2018-07-15T15:50:09.852Z,5.17
2018-07-15T15:52:38.048Z,4.33
2018-07-15T15:55:06.490Z,4.80
2018-07-15T15:57:34.703Z,5.27
2018-07-15T16:00:02.941Z,5.40
2018-07-15T16:02:31.137Z,5.50
2018-07-15T16:04:59.353Z,4.60
2018-07-15T16:07:27.560Z,4.60
2018-07-15T16:09:55.725Z,5.20
2018-07-15T16:12:23.936Z,4.93
2018-07-15T16:14:52.097Z,5.07
2018-07-15T16:17:20.328Z,5.03
2018-07-15T16:19:48.697Z,4.30
2018-07-15T16:22:16.875Z,5.30
2018-07-15T16:24:45.074Z,6.03
2018-07-15T16:27:13.288Z,5.70
2018-07-15T16:29:41.519Z,5.40
2018-07-15T16:32:09.693Z,6.30
2018-07-15T16:34:38.216Z,6.70
2018-07-15T16:37:06.421Z,6.70
2018-07-15T16:39:34.595Z,6.90
2018-07-15T16:42:02.766Z,7.73
2018-07-15T16:44:31.234Z,7.60
2018-07-15T16:46:59.986Z,7.50
2018-07-15T16:49:28.228Z,8.10
2018-07-15T16:51:56.389Z,11.20
2018-07-15T16:54:24.592Z,9.73
2018-07-15T16:56:52.807Z,8.87
2018-07-15T16:59:27.308Z,9.10
2018-07-15T17:01:55.482Z,9.47
2018-07-15T17:04:23.669Z,7.33
2018-07-15T17:06:51.866Z,9.60
2018-07-15T17:09:20.051Z,7.43
2018-07-15T17:11:51.228Z,8.20
2018-07-15T17:14:19.449Z,7.73
2018-07-15T17:16:47.622Z,8.07
2018-07-15T17:19:15.802Z,9.13
2018-07-15T17:21:43.984Z,8.80
2018-07-15T17:24:12.175Z,8.73
2018-07-15T17:26:40.341Z,9.00
2018-07-15T17:29:08.526Z,7.30
2018-07-15T17:31:36.706Z,7.50
2018-07-15T17:34:04.954Z,7.60
2018-07-15T17:36:33.148Z,7.80
2018-07-15T17:39:01.367Z,8.37
2018-07-15T17:41:29.604Z,8.20
2018-07-15T17:43:57.800Z,10.00
2018-07-15T17:46:25.985Z,8.20
2018-07-15T17:48:54.223Z,6.70
2018-07-15T17:51:22.399Z,7.07
2018-07-15T17:53:50.588Z,7.53
2018-07-15T17:56:18.775Z,9.00
2018-07-15T17:58:46.989Z,8.37
2018-07-15T18:01:15.161Z,8.47
2018-07-15T18:03:43.344Z,7.20
2018-07-15T18:06:11.519Z,7.40
2018-07-15T18:08:39.695Z,7.17
2018-07-15T18:11:08.206Z,7.03
2018-07-15T18:13:36.394Z,6.30
2018-07-15T18:16:04.619Z,6.83
2018-07-15T18:18:32.811Z,7.00
2018-07-15T18:21:01.013Z,7.53
2018-07-15T18:23:29.344Z,7.70
2018-07-15T18:25:57.665Z,6.93
2018-07-15T18:28:25.881Z,7.17
2018-07-15T18:30:54.180Z,6.90
2018-07-15T18:33:22.444Z,6.83
2018-07-15T18:35:50.630Z,6.87
2018-07-15T18:38:18.852Z,6.27
2018-07-15T18:40:47.062Z,6.50
2018-07-15T18:43:15.318Z,6.97
2018-07-15T18:45:43.544Z,6.50
2018-07-15T18:48:11.756Z,6.87
2018-07-15T18:50:40.013Z,7.13
2018-07-15T18:53:08.216Z,7.33
2018-07-15T18:55:36.427Z,6.70
2018-07-15T18:58:04.782Z,6.63
2018-07-15T19:00:33.086Z,7.47
2018-07-15T19:03:01.383Z,7.03
2018-07-15T19:05:29.588Z,6.67
2018-07-15T19:07:57.847Z,6.53
2018-07-15T19:10:26.141Z,6.27
2018-07-15T19:12:54.467Z,6.70
2018-07-15T19:15:22.862Z,6.63
2018-07-15T19:17:51.063Z,7.33
2018-07-15T19:20:19.251Z,6.50
2018-07-15T19:22:47.467Z,5.40
2018-07-15T19:25:15.831Z,5.93
2018-07-15T19:27:44.075Z,5.90
2018-07-15T19:30:12.277Z,5.60
2018-07-15T19:32:40.725Z,5.50
2018-07-15T19:35:08.920Z,5.97
2018-07-15T19:37:37.140Z,5.77
2018-07-15T19:40:05.705Z,5.77
2018-07-15T19:42:34.028Z,5.90
2018-07-15T19:45:02.132Z,5.20
2018-07-15T19:47:30.362Z,5.40
2018-07-15T19:49:58.537Z,6.13
2018-07-15T19:52:26.942Z,5.93
2018-07-15T19:54:55.238Z,6.60
2018-07-15T19:57:23.429Z,6.23
2018-07-15T19:59:51.587Z,6.57
2018-07-15T20:02:19.764Z,6.63
2018-07-15T20:04:47.946Z,6.90
2018-07-15T20:07:16.132Z,6.67
2018-07-15T20:09:44.329Z,6.70
2018-07-15T20:12:12.498Z,7.13
2018-07-15T20:14:40.677Z,6.70
2018-07-15T20:17:08.930Z,6.20
2018-07-15T20:19:37.099Z,6.50
2018-07-15T20:22:05.302Z,6.60
2018-07-15T20:24:33.496Z,5.47
2018-07-15T20:27:01.680Z,5.50
2018-07-15T20:29:29.869Z,6.03
2018-07-15T20:31:58.047Z,5.63
2018-07-15T20:34:26.319Z,5.97
2018-07-15T20:36:55.208Z,5.60
2018-07-15T20:39:23.388Z,5.40
2018-07-15T20:41:51.577Z,6.27
2018-07-15T20:44:19.801Z,6.00
2018-07-15T20:46:48.022Z,5.90
2018-07-15T20:49:16.188Z,6.00
2018-07-15T20:51:44.521Z,4.80
2018-07-15T20:54:12.691Z,5.33
2018-07-15T20:56:40.851Z,5.27
2018-07-15T20:59:09.043Z,5.40
2018-07-15T21:01:37.219Z,5.23
2018-07-15T21:04:05.738Z,5.47
2018-07-15T21:06:35.328Z,5.00
2018-07-15T21:09:04.741Z,5.10
2018-07-15T21:11:32.924Z,5.10
2018-07-15T21:14:01.128Z,5.87
2018-07-15T21:16:29.343Z,5.70
2018-07-15T21:18:58.534Z,5.50
2018-07-15T21:21:26.704Z,4.90
2018-07-15T21:23:54.886Z,5.00
2018-07-15T21:26:23.069Z,5.63
2018-07-15T21:28:51.267Z,5.43
2018-07-15T21:31:19.452Z,4.90
2018-07-15T21:33:47.628Z,5.00
2018-07-15T21:36:15.798Z,4.90
2018-07-15T21:38:43.956Z,5.30
2018-07-15T21:41:12.120Z,5.20
2018-07-15T21:43:40.295Z,5.20
2018-07-15T21:46:08.469Z,4.17
2018-07-15T21:48:36.638Z,4.60
2018-07-15T21:51:04.854Z,5.20
2018-07-15T21:53:33.147Z,4.67
2018-07-15T21:56:01.318Z,5.30
2018-07-15T21:58:29.516Z,5.30
2018-07-15T22:00:57.686Z,5.10
2018-07-15T22:03:26.036Z,5.07
2018-07-15T22:05:54.234Z,4.87
2018-07-15T22:08:33.545Z,5.17
2018-07-15T22:11:01.737Z,4.97
2018-07-15T22:13:29.914Z,5.93
2018-07-15T22:15:58.109Z,5.30
2018-07-15T22:18:26.278Z,5.90
2018-07-15T22:20:54.460Z,5.50
2018-07-15T22:23:22.624Z,6.17
2018-07-15T22:25:50.809Z,5.07
2018-07-15T22:28:18.971Z,5.30
2018-07-15T22:30:47.150Z,5.07
2018-07-15T22:33:15.303Z,5.10
2018-07-15T22:35:43.487Z,4.77
2018-07-15T22:38:11.649Z,5.07
2018-07-15T22:40:39.824Z,5.00
2018-07-15T22:43:08.013Z,4.80
2018-07-15T22:45:36.188Z,4.97
2018-07-15T22:48:04.361Z,4.93
2018-07-15T22:50:32.529Z,5.07
2018-07-15T22:53:00.708Z,4.97
2018-07-15T22:55:28.867Z,5.00
2018-07-15T22:57:57.065Z,5.10
2018-07-15T23:00:25.241Z,4.73
2018-07-15T23:02:53.413Z,5.17
2018-07-15T23:05:41.871Z,4.77
2018-07-15T23:08:10.359Z,4.40
2018-07-15T23:10:38.553Z,4.23
2018-07-15T23:13:07.668Z,5.43
2018-07-15T23:15:36.298Z,4.90
2018-07-15T23:18:04.471Z,4.50
2018-07-15T23:20:33.370Z,4.77
2018-07-15T23:23:02.370Z,4.67
2018-07-15T23:25:31.116Z,4.77
2018-07-15T23:27:59.984Z,4.53
2018-07-15T23:30:28.828Z,4.53
2018-07-15T23:32:57.005Z,4.73
2018-07-15T23:35:25.257Z,4.80
2018-07-15T23:37:53.427Z,5.00
2018-07-15T23:40:21.615Z,4.80
2018-07-15T23:42:50.456Z,4.73
2018-07-15T23:45:18.656Z,4.50
2018-07-15T23:47:46.832Z,4.93
2018-07-15T23:50:15.016Z,4.97
2018-07-15T23:52:43.220Z,5.33
2018-07-15T23:55:11.399Z,5.17
2018-07-15T23:57:39.598Z,5.00
